sensor_id;sensor_type;location;lat;lon;timestamp;P1;durP1;ratioP1;P2;durP2;ratioP2
20022;SDS011;10172;42.054;24.546;2023-04-25T00:01:20;2.45;;;1.65;;
20022;SDS011;10172;42.054;24.546;2023-04-25T00:03:49;2.92;;;1.40;;
20022;SDS011;10172;42.054;24.546;2023-04-25T00:06:15;5.32;;;1.90;;
20022;SDS011;10172;42.054;24.546;2023-04-25T00:08:42;3.67;;;2.20;;
20022;SDS011;10172;42.054;24.546;2023-04-25T00:11:08;3.53;;;2.35;;
20022;SDS011;10172;42.054;24.546;2023-04-25T00:13:33;4.75;;;2.40;;
20022;SDS011;10172;42.054;24.546;2023-04-25T00:15:59;3.30;;;2.10;;
20022;SDS011;10172;42.054;24.546;2023-04-25T00:18:25;2.88;;;1.90;;
20022;SDS011;10172;42.054;24.546;2023-04-25T00:20:54;2.30;;;1.58;;
20022;SDS011;10172;42.054;24.546;2023-04-25T00:23:20;2.03;;;1.52;;
20022;SDS011;10172;42.054;24.546;2023-04-25T00:25:49;2.33;;;1.48;;
20022;SDS011;10172;42.054;24.546;2023-04-25T00:28:15;2.78;;;1.23;;
20022;SDS011;10172;42.054;24.546;2023-04-25T00:30:41;1.73;;;1.30;;
20022;SDS011;10172;42.054;24.546;2023-04-25T00:33:08;1.80;;;1.38;;
20022;SDS011;10172;42.054;24.546;2023-04-25T00:35:34;3.17;;;2.20;;
20022;SDS011;10172;42.054;24.546;2023-04-25T00:38:00;3.55;;;2.38;;
20022;SDS011;10172;42.054;24.546;2023-04-25T00:40:26;4.25;;;2.42;;
20022;SDS011;10172;42.054;24.546;2023-04-25T00:42:53;3.72;;;2.63;;
20022;SDS011;10172;42.054;24.546;2023-04-25T00:45:19;4.28;;;2.75;;
20022;SDS011;10172;42.054;24.546;2023-04-25T00:47:44;4.53;;;3.20;;
20022;SDS011;10172;42.054;24.546;2023-04-25T00:50:10;4.22;;;2.97;;
20022;SDS011;10172;42.054;24.546;2023-04-25T00:52:37;4.55;;;2.75;;
20022;SDS011;10172;42.054;24.546;2023-04-25T00:55:05;7.45;;;3.08;;
20022;SDS011;10172;42.054;24.546;2023-04-25T00:57:32;5.55;;;3.35;;
20022;SDS011;10172;42.054;24.546;2023-04-25T00:59:58;4.68;;;3.35;;
20022;SDS011;10172;42.054;24.546;2023-04-25T01:02:24;4.85;;;3.28;;
20022;SDS011;10172;42.054;24.546;2023-04-25T01:04:50;6.65;;;3.42;;
20022;SDS011;10172;42.054;24.546;2023-04-25T01:07:16;4.50;;;3.55;;
20022;SDS011;10172;42.054;24.546;2023-04-25T01:09:42;7.53;;;4.03;;
20022;SDS011;10172;42.054;24.546;2023-04-25T01:12:07;4.70;;;3.55;;
20022;SDS011;10172;42.054;24.546;2023-04-25T01:14:33;7.20;;;4.25;;
20022;SDS011;10172;42.054;24.546;2023-04-25T01:16:58;5.50;;;3.80;;
20022;SDS011;10172;42.054;24.546;2023-04-25T01:19:24;5.65;;;3.25;;
20022;SDS011;10172;42.054;24.546;2023-04-25T01:21:51;4.50;;;3.53;;
20022;SDS011;10172;42.054;24.546;2023-04-25T01:24:16;2.78;;;1.90;;
20022;SDS011;10172;42.054;24.546;2023-04-25T01:26:42;2.40;;;1.63;;
20022;SDS011;10172;42.054;24.546;2023-04-25T01:29:14;1.92;;;1.05;;
20022;SDS011;10172;42.054;24.546;2023-04-25T01:31:40;1.77;;;1.20;;
20022;SDS011;10172;42.054;24.546;2023-04-25T01:34:06;1.58;;;1.13;;
20022;SDS011;10172;42.054;24.546;2023-04-25T01:36:32;2.53;;;1.02;;
20022;SDS011;10172;42.054;24.546;2023-04-25T01:38:58;2.60;;;1.52;;
20022;SDS011;10172;42.054;24.546;2023-04-25T01:41:25;1.80;;;1.40;;
20022;SDS011;10172;42.054;24.546;2023-04-25T01:43:51;2.15;;;1.65;;
20022;SDS011;10172;42.054;24.546;2023-04-25T01:46:17;1.95;;;1.33;;
20022;SDS011;10172;42.054;24.546;2023-04-25T01:48:43;2.83;;;1.30;;
20022;SDS011;10172;42.054;24.546;2023-04-25T01:51:08;4.90;;;3.30;;
20022;SDS011;10172;42.054;24.546;2023-04-25T01:53:34;4.57;;;2.75;;
20022;SDS011;10172;42.054;24.546;2023-04-25T01:56:00;4.30;;;2.85;;
20022;SDS011;10172;42.054;24.546;2023-04-25T01:58:25;4.93;;;3.00;;
20022;SDS011;10172;42.054;24.546;2023-04-25T02:00:51;4.10;;;2.55;;
20022;SDS011;10172;42.054;24.546;2023-04-25T02:03:16;6.43;;;4.18;;
20022;SDS011;10172;42.054;24.546;2023-04-25T02:05:42;5.25;;;2.90;;
20022;SDS011;10172;42.054;24.546;2023-04-25T02:08:08;4.32;;;3.00;;
20022;SDS011;10172;42.054;24.546;2023-04-25T02:10:34;3.60;;;2.65;;
20022;SDS011;10172;42.054;24.546;2023-04-25T02:13:00;3.75;;;1.92;;
20022;SDS011;10172;42.054;24.546;2023-04-25T02:15:26;3.55;;;1.90;;
20022;SDS011;10172;42.054;24.546;2023-04-25T02:17:51;3.65;;;2.33;;
20022;SDS011;10172;42.054;24.546;2023-04-25T02:20:21;3.67;;;1.73;;
20022;SDS011;10172;42.054;24.546;2023-04-25T02:22:47;2.30;;;1.52;;
20022;SDS011;10172;42.054;24.546;2023-04-25T02:25:13;1.98;;;1.55;;
20022;SDS011;10172;42.054;24.546;2023-04-25T02:27:38;1.80;;;1.30;;
20022;SDS011;10172;42.054;24.546;2023-04-25T02:30:04;2.38;;;1.58;;
20022;SDS011;10172;42.054;24.546;2023-04-25T02:32:32;6.40;;;2.58;;
20022;SDS011;10172;42.054;24.546;2023-04-25T02:34:59;4.85;;;3.15;;
20022;SDS011;10172;42.054;24.546;2023-04-25T02:37:29;3.72;;;2.03;;
20022;SDS011;10172;42.054;24.546;2023-04-25T02:39:55;2.00;;;1.60;;
20022;SDS011;10172;42.054;24.546;2023-04-25T02:42:20;3.90;;;1.80;;
20022;SDS011;10172;42.054;24.546;2023-04-25T02:44:46;3.13;;;2.00;;
20022;SDS011;10172;42.054;24.546;2023-04-25T02:47:11;3.42;;;2.30;;
20022;SDS011;10172;42.054;24.546;2023-04-25T02:49:36;5.30;;;3.55;;
20022;SDS011;10172;42.054;24.546;2023-04-25T02:52:02;6.50;;;3.67;;
20022;SDS011;10172;42.054;24.546;2023-04-25T02:54:27;7.13;;;4.20;;
20022;SDS011;10172;42.054;24.546;2023-04-25T02:56:53;5.97;;;4.28;;
20022;SDS011;10172;42.054;24.546;2023-04-25T02:59:18;6.35;;;4.10;;
20022;SDS011;10172;42.054;24.546;2023-04-25T03:01:44;6.53;;;3.80;;
20022;SDS011;10172;42.054;24.546;2023-04-25T03:04:10;6.25;;;4.30;;
20022;SDS011;10172;42.054;24.546;2023-04-25T03:06:35;6.53;;;3.72;;
20022;SDS011;10172;42.054;24.546;2023-04-25T03:09:01;5.47;;;3.25;;
20022;SDS011;10172;42.054;24.546;2023-04-25T03:11:26;7.57;;;3.80;;
20022;SDS011;10172;42.054;24.546;2023-04-25T03:13:52;4.20;;;3.20;;
20022;SDS011;10172;42.054;24.546;2023-04-25T03:16:17;6.20;;;3.00;;
20022;SDS011;10172;42.054;24.546;2023-04-25T03:18:43;5.15;;;3.53;;
20022;SDS011;10172;42.054;24.546;2023-04-25T03:21:08;6.30;;;4.05;;
20022;SDS011;10172;42.054;24.546;2023-04-25T03:23:34;6.47;;;3.50;;
20022;SDS011;10172;42.054;24.546;2023-04-25T03:25:59;6.22;;;3.30;;
20022;SDS011;10172;42.054;24.546;2023-04-25T03:28:25;4.18;;;2.83;;
20022;SDS011;10172;42.054;24.546;2023-04-25T03:30:51;4.95;;;3.03;;
20022;SDS011;10172;42.054;24.546;2023-04-25T03:33:16;7.20;;;3.70;;
20022;SDS011;10172;42.054;24.546;2023-04-25T03:35:42;3.90;;;2.30;;
20022;SDS011;10172;42.054;24.546;2023-04-25T03:38:07;4.05;;;2.90;;
20022;SDS011;10172;42.054;24.546;2023-04-25T03:40:33;3.75;;;2.53;;
20022;SDS011;10172;42.054;24.546;2023-04-25T03:42:59;5.07;;;2.50;;
20022;SDS011;10172;42.054;24.546;2023-04-25T03:45:24;8.25;;;2.28;;
20022;SDS011;10172;42.054;24.546;2023-04-25T03:47:50;3.97;;;2.70;;
20022;SDS011;10172;42.054;24.546;2023-04-25T03:50:15;6.28;;;3.17;;
20022;SDS011;10172;42.054;24.546;2023-04-25T03:52:41;5.57;;;2.80;;
20022;SDS011;10172;42.054;24.546;2023-04-25T03:55:06;5.78;;;2.95;;
20022;SDS011;10172;42.054;24.546;2023-04-25T03:57:32;3.78;;;2.53;;
20022;SDS011;10172;42.054;24.546;2023-04-25T03:59:57;4.13;;;2.45;;
20022;SDS011;10172;42.054;24.546;2023-04-25T04:02:23;3.38;;;2.58;;
20022;SDS011;10172;42.054;24.546;2023-04-25T04:04:48;3.28;;;2.42;;
20022;SDS011;10172;42.054;24.546;2023-04-25T04:07:14;3.33;;;2.35;;
20022;SDS011;10172;42.054;24.546;2023-04-25T04:09:39;3.13;;;2.20;;
20022;SDS011;10172;42.054;24.546;2023-04-25T04:12:05;3.65;;;2.35;;
20022;SDS011;10172;42.054;24.546;2023-04-25T04:14:30;4.90;;;2.70;;
20022;SDS011;10172;42.054;24.546;2023-04-25T04:16:56;3.80;;;2.45;;
20022;SDS011;10172;42.054;24.546;2023-04-25T04:19:21;2.95;;;2.00;;
20022;SDS011;10172;42.054;24.546;2023-04-25T04:21:47;5.65;;;2.70;;
20022;SDS011;10172;42.054;24.546;2023-04-25T04:24:13;3.47;;;2.30;;
20022;SDS011;10172;42.054;24.546;2023-04-25T04:26:39;5.90;;;2.58;;
20022;SDS011;10172;42.054;24.546;2023-04-25T04:29:05;4.35;;;2.53;;
20022;SDS011;10172;42.054;24.546;2023-04-25T04:31:32;4.60;;;1.80;;
20022;SDS011;10172;42.054;24.546;2023-04-25T04:33:57;2.80;;;2.00;;
20022;SDS011;10172;42.054;24.546;2023-04-25T04:36:23;3.42;;;2.45;;
20022;SDS011;10172;42.054;24.546;2023-04-25T04:38:51;3.10;;;2.20;;
20022;SDS011;10172;42.054;24.546;2023-04-25T04:41:17;3.47;;;2.17;;
20022;SDS011;10172;42.054;24.546;2023-04-25T04:43:44;3.38;;;2.17;;
20022;SDS011;10172;42.054;24.546;2023-04-25T04:46:10;4.80;;;2.40;;
20022;SDS011;10172;42.054;24.546;2023-04-25T04:48:37;2.55;;;2.00;;
20022;SDS011;10172;42.054;24.546;2023-04-25T04:51:05;3.22;;;2.33;;
20022;SDS011;10172;42.054;24.546;2023-04-25T04:53:30;2.75;;;1.83;;
20022;SDS011;10172;42.054;24.546;2023-04-25T04:55:56;2.63;;;2.10;;
20022;SDS011;10172;42.054;24.546;2023-04-25T04:58:21;2.67;;;1.95;;
20022;SDS011;10172;42.054;24.546;2023-04-25T05:00:47;3.25;;;2.40;;
20022;SDS011;10172;42.054;24.546;2023-04-25T05:03:13;3.83;;;2.30;;
20022;SDS011;10172;42.054;24.546;2023-04-25T05:05:38;3.08;;;2.00;;
20022;SDS011;10172;42.054;24.546;2023-04-25T05:08:05;2.42;;;1.77;;
20022;SDS011;10172;42.054;24.546;2023-04-25T05:10:31;4.93;;;2.20;;
20022;SDS011;10172;42.054;24.546;2023-04-25T05:12:56;3.70;;;2.22;;
20022;SDS011;10172;42.054;24.546;2023-04-25T05:15:22;4.13;;;2.65;;
20022;SDS011;10172;42.054;24.546;2023-04-25T05:17:47;4.20;;;2.35;;
20022;SDS011;10172;42.054;24.546;2023-04-25T05:20:13;3.78;;;2.13;;
20022;SDS011;10172;42.054;24.546;2023-04-25T05:22:39;3.30;;;1.77;;
20022;SDS011;10172;42.054;24.546;2023-04-25T05:25:06;2.65;;;1.92;;
20022;SDS011;10172;42.054;24.546;2023-04-25T05:27:32;3.35;;;1.90;;
20022;SDS011;10172;42.054;24.546;2023-04-25T05:29:58;3.28;;;1.88;;
20022;SDS011;10172;42.054;24.546;2023-04-25T05:32:23;4.57;;;2.13;;
20022;SDS011;10172;42.054;24.546;2023-04-25T05:34:50;3.47;;;2.42;;
20022;SDS011;10172;42.054;24.546;2023-04-25T05:37:16;3.40;;;2.58;;
20022;SDS011;10172;42.054;24.546;2023-04-25T05:39:42;7.03;;;3.00;;
20022;SDS011;10172;42.054;24.546;2023-04-25T05:42:07;5.50;;;2.75;;
20022;SDS011;10172;42.054;24.546;2023-04-25T05:44:33;6.15;;;3.08;;
20022;SDS011;10172;42.054;24.546;2023-04-25T05:46:58;4.90;;;2.85;;
20022;SDS011;10172;42.054;24.546;2023-04-25T05:49:24;5.22;;;2.90;;
20022;SDS011;10172;42.054;24.546;2023-04-25T05:51:49;4.30;;;2.88;;
20022;SDS011;10172;42.054;24.546;2023-04-25T05:54:15;3.95;;;2.25;;
20022;SDS011;10172;42.054;24.546;2023-04-25T05:56:40;4.43;;;2.30;;
20022;SDS011;10172;42.054;24.546;2023-04-25T05:59:06;4.60;;;2.60;;
20022;SDS011;10172;42.054;24.546;2023-04-25T06:01:31;3.25;;;2.42;;
20022;SDS011;10172;42.054;24.546;2023-04-25T06:03:57;4.25;;;2.40;;
20022;SDS011;10172;42.054;24.546;2023-04-25T06:06:22;3.97;;;2.40;;
20022;SDS011;10172;42.054;24.546;2023-04-25T06:08:48;4.43;;;2.47;;
20022;SDS011;10172;42.054;24.546;2023-04-25T06:11:13;5.50;;;3.15;;
20022;SDS011;10172;42.054;24.546;2023-04-25T06:13:38;4.25;;;2.90;;
20022;SDS011;10172;42.054;24.546;2023-04-25T06:16:04;4.63;;;2.90;;
20022;SDS011;10172;42.054;24.546;2023-04-25T06:18:30;4.55;;;2.97;;
20022;SDS011;10172;42.054;24.546;2023-04-25T06:20:55;3.10;;;2.10;;
20022;SDS011;10172;42.054;24.546;2023-04-25T06:23:21;5.45;;;2.53;;
20022;SDS011;10172;42.054;24.546;2023-04-25T06:25:46;4.38;;;2.80;;
20022;SDS011;10172;42.054;24.546;2023-04-25T06:28:12;4.90;;;2.95;;
20022;SDS011;10172;42.054;24.546;2023-04-25T06:30:37;5.20;;;2.42;;
20022;SDS011;10172;42.054;24.546;2023-04-25T06:33:03;2.75;;;2.00;;
20022;SDS011;10172;42.054;24.546;2023-04-25T06:35:28;3.70;;;1.98;;
20022;SDS011;10172;42.054;24.546;2023-04-25T06:37:54;3.08;;;2.20;;
20022;SDS011;10172;42.054;24.546;2023-04-25T06:40:19;2.97;;;2.25;;
20022;SDS011;10172;42.054;24.546;2023-04-25T06:42:45;4.80;;;2.17;;
20022;SDS011;10172;42.054;24.546;2023-04-25T06:45:10;4.03;;;2.05;;
20022;SDS011;10172;42.054;24.546;2023-04-25T06:47:36;3.65;;;2.30;;
20022;SDS011;10172;42.054;24.546;2023-04-25T06:50:01;2.47;;;1.63;;
20022;SDS011;10172;42.054;24.546;2023-04-25T06:52:27;2.10;;;1.50;;
20022;SDS011;10172;42.054;24.546;2023-04-25T06:54:52;3.55;;;1.90;;
20022;SDS011;10172;42.054;24.546;2023-04-25T06:57:18;2.38;;;1.88;;
20022;SDS011;10172;42.054;24.546;2023-04-25T06:59:43;3.03;;;1.80;;
20022;SDS011;10172;42.054;24.546;2023-04-25T07:02:09;4.55;;;2.08;;
20022;SDS011;10172;42.054;24.546;2023-04-25T07:04:34;2.88;;;2.25;;
20022;SDS011;10172;42.054;24.546;2023-04-25T07:06:59;2.72;;;1.80;;
20022;SDS011;10172;42.054;24.546;2023-04-25T07:09:27;3.95;;;2.10;;
20022;SDS011;10172;42.054;24.546;2023-04-25T07:11:53;4.07;;;1.73;;
20022;SDS011;10172;42.054;24.546;2023-04-25T07:14:18;3.17;;;1.80;;
20022;SDS011;10172;42.054;24.546;2023-04-25T07:16:44;2.25;;;1.50;;
20022;SDS011;10172;42.054;24.546;2023-04-25T07:19:09;2.83;;;1.88;;
20022;SDS011;10172;42.054;24.546;2023-04-25T07:21:35;1.85;;;1.30;;
20022;SDS011;10172;42.054;24.546;2023-04-25T07:24:01;2.60;;;1.40;;
20022;SDS011;10172;42.054;24.546;2023-04-25T07:26:27;2.95;;;1.40;;
20022;SDS011;10172;42.054;24.546;2023-04-25T07:28:52;2.25;;;1.58;;
20022;SDS011;10172;42.054;24.546;2023-04-25T07:31:19;2.15;;;1.30;;
20022;SDS011;10172;42.054;24.546;2023-04-25T07:33:45;3.20;;;1.85;;
20022;SDS011;10172;42.054;24.546;2023-04-25T07:36:11;5.82;;;1.83;;
20022;SDS011;10172;42.054;24.546;2023-04-25T07:38:37;2.72;;;1.65;;
20022;SDS011;10172;42.054;24.546;2023-04-25T07:41:03;3.95;;;2.17;;
20022;SDS011;10172;42.054;24.546;2023-04-25T07:43:29;4.32;;;1.80;;
20022;SDS011;10172;42.054;24.546;2023-04-25T07:45:54;3.10;;;1.88;;
20022;SDS011;10172;42.054;24.546;2023-04-25T07:48:21;3.63;;;2.13;;
20022;SDS011;10172;42.054;24.546;2023-04-25T07:50:47;1.98;;;1.50;;
20022;SDS011;10172;42.054;24.546;2023-04-25T07:53:13;2.45;;;1.88;;
20022;SDS011;10172;42.054;24.546;2023-04-25T07:55:39;1.88;;;1.30;;
20022;SDS011;10172;42.054;24.546;2023-04-25T07:58:05;3.20;;;1.65;;
20022;SDS011;10172;42.054;24.546;2023-04-25T08:00:32;3.25;;;1.50;;
20022;SDS011;10172;42.054;24.546;2023-04-25T08:02:57;2.50;;;1.58;;
20022;SDS011;10172;42.054;24.546;2023-04-25T08:05:22;2.15;;;1.30;;
20022;SDS011;10172;42.054;24.546;2023-04-25T08:07:48;3.80;;;1.70;;
20022;SDS011;10172;42.054;24.546;2023-04-25T08:10:13;2.63;;;1.50;;
20022;SDS011;10172;42.054;24.546;2023-04-25T08:12:39;2.92;;;1.85;;
20022;SDS011;10172;42.054;24.546;2023-04-25T08:15:05;4.68;;;2.35;;
20022;SDS011;10172;42.054;24.546;2023-04-25T08:17:31;1.42;;;1.33;;
20022;SDS011;10172;42.054;24.546;2023-04-25T08:19:57;2.47;;;1.50;;
20022;SDS011;10172;42.054;24.546;2023-04-25T08:22:22;2.58;;;1.55;;
20022;SDS011;10172;42.054;24.546;2023-04-25T08:24:48;1.60;;;1.40;;
20022;SDS011;10172;42.054;24.546;2023-04-25T08:27:13;2.15;;;1.70;;
20022;SDS011;10172;42.054;24.546;2023-04-25T08:29:39;2.17;;;1.52;;
20022;SDS011;10172;42.054;24.546;2023-04-25T08:32:04;3.22;;;1.90;;
20022;SDS011;10172;42.054;24.546;2023-04-25T08:34:30;2.58;;;1.50;;
20022;SDS011;10172;42.054;24.546;2023-04-25T08:36:55;3.22;;;2.15;;
20022;SDS011;10172;42.054;24.546;2023-04-25T08:39:21;3.55;;;1.80;;
20022;SDS011;10172;42.054;24.546;2023-04-25T08:41:46;3.25;;;1.80;;
20022;SDS011;10172;42.054;24.546;2023-04-25T08:44:12;3.17;;;1.80;;
20022;SDS011;10172;42.054;24.546;2023-04-25T08:46:38;3.40;;;2.17;;
20022;SDS011;10172;42.054;24.546;2023-04-25T08:49:07;2.40;;;1.70;;
20022;SDS011;10172;42.054;24.546;2023-04-25T08:51:34;2.35;;;1.85;;
20022;SDS011;10172;42.054;24.546;2023-04-25T08:54:09;2.97;;;1.88;;
20022;SDS011;10172;42.054;24.546;2023-04-25T08:56:37;6.75;;;2.72;;
20022;SDS011;10172;42.054;24.546;2023-04-25T08:59:05;10.77;;;5.80;;
20022;SDS011;10172;42.054;24.546;2023-04-25T09:01:33;7.80;;;4.10;;
20022;SDS011;10172;42.054;24.546;2023-04-25T09:04:00;5.90;;;2.72;;
20022;SDS011;10172;42.054;24.546;2023-04-25T09:06:26;5.25;;;2.17;;
20022;SDS011;10172;42.054;24.546;2023-04-25T09:08:53;5.55;;;2.30;;
20022;SDS011;10172;42.054;24.546;2023-04-25T09:11:18;3.55;;;2.25;;
20022;SDS011;10172;42.054;24.546;2023-04-25T09:13:44;6.55;;;4.20;;
20022;SDS011;10172;42.054;24.546;2023-04-25T09:16:10;2.90;;;1.85;;
20022;SDS011;10172;42.054;24.546;2023-04-25T09:18:36;3.40;;;2.13;;
20022;SDS011;10172;42.054;24.546;2023-04-25T09:21:05;3.00;;;1.90;;
20022;SDS011;10172;42.054;24.546;2023-04-25T09:23:38;2.67;;;1.58;;
20022;SDS011;10172;42.054;24.546;2023-04-25T09:26:19;3.58;;;1.77;;
20022;SDS011;10172;42.054;24.546;2023-04-25T09:28:45;3.13;;;1.73;;
20022;SDS011;10172;42.054;24.546;2023-04-25T09:31:20;2.35;;;1.77;;
20022;SDS011;10172;42.054;24.546;2023-04-25T09:33:49;2.42;;;1.20;;
20022;SDS011;10172;42.054;24.546;2023-04-25T09:36:15;2.60;;;1.40;;
20022;SDS011;10172;42.054;24.546;2023-04-25T09:38:41;2.05;;;1.30;;
20022;SDS011;10172;42.054;24.546;2023-04-25T09:41:09;2.58;;;1.65;;
20022;SDS011;10172;42.054;24.546;2023-04-25T09:43:35;2.25;;;1.20;;
20022;SDS011;10172;42.054;24.546;2023-04-25T09:46:01;5.30;;;1.45;;
20022;SDS011;10172;42.054;24.546;2023-04-25T09:48:27;2.40;;;1.30;;
20022;SDS011;10172;42.054;24.546;2023-04-25T09:51:15;2.88;;;1.70;;
20022;SDS011;10172;42.054;24.546;2023-04-25T09:53:40;1.98;;;1.35;;
20022;SDS011;10172;42.054;24.546;2023-04-25T09:56:07;1.83;;;1.30;;
20022;SDS011;10172;42.054;24.546;2023-04-25T09:58:35;2.17;;;1.13;;
20022;SDS011;10172;42.054;24.546;2023-04-25T10:01:03;3.10;;;1.42;;
20022;SDS011;10172;42.054;24.546;2023-04-25T10:03:33;2.85;;;1.55;;
20022;SDS011;10172;42.054;24.546;2023-04-25T10:06:01;1.70;;;1.13;;
20022;SDS011;10172;42.054;24.546;2023-04-25T10:08:33;1.50;;;1.15;;
20022;SDS011;10172;42.054;24.546;2023-04-25T10:11:00;2.35;;;1.25;;
20022;SDS011;10172;42.054;24.546;2023-04-25T10:13:31;1.60;;;0.82;;
20022;SDS011;10172;42.054;24.546;2023-04-25T10:15:58;1.60;;;1.10;;
20022;SDS011;10172;42.054;24.546;2023-04-25T10:18:25;3.28;;;1.17;;
20022;SDS011;10172;42.054;24.546;2023-04-25T10:20:53;2.38;;;0.80;;
20022;SDS011;10172;42.054;24.546;2023-04-25T10:23:19;1.65;;;1.17;;
20022;SDS011;10172;42.054;24.546;2023-04-25T10:25:45;1.70;;;1.00;;
20022;SDS011;10172;42.054;24.546;2023-04-25T10:28:11;3.50;;;1.05;;
20022;SDS011;10172;42.054;24.546;2023-04-25T10:30:36;2.25;;;1.05;;
20022;SDS011;10172;42.054;24.546;2023-04-25T10:33:02;1.90;;;0.98;;
20022;SDS011;10172;42.054;24.546;2023-04-25T10:35:42;1.70;;;1.20;;
20022;SDS011;10172;42.054;24.546;2023-04-25T10:38:13;2.22;;;1.25;;
20022;SDS011;10172;42.054;24.546;2023-04-25T10:40:39;2.25;;;1.13;;
20022;SDS011;10172;42.054;24.546;2023-04-25T10:46:00;0.98;;;0.88;;
20022;SDS011;10172;42.054;24.546;2023-04-25T10:48:26;1.23;;;0.93;;
20022;SDS011;10172;42.054;24.546;2023-04-25T10:51:12;1.27;;;1.10;;
20022;SDS011;10172;42.054;24.546;2023-04-25T10:53:45;1.52;;;1.30;;
20022;SDS011;10172;42.054;24.546;2023-04-25T10:56:16;1.38;;;1.00;;
20022;SDS011;10172;42.054;24.546;2023-04-25T10:58:44;2.22;;;1.20;;
20022;SDS011;10172;42.054;24.546;2023-04-25T11:01:11;1.45;;;1.10;;
20022;SDS011;10172;42.054;24.546;2023-04-25T11:03:41;1.35;;;1.05;;
20022;SDS011;10172;42.054;24.546;2023-04-25T11:06:23;2.35;;;1.10;;
20022;SDS011;10172;42.054;24.546;2023-04-25T11:08:57;1.45;;;1.13;;
20022;SDS011;10172;42.054;24.546;2023-04-25T11:11:26;2.58;;;1.10;;
20022;SDS011;10172;42.054;24.546;2023-04-25T11:13:52;2.03;;;1.08;;
20022;SDS011;10172;42.054;24.546;2023-04-25T11:16:17;1.60;;;0.93;;
20022;SDS011;10172;42.054;24.546;2023-04-25T11:18:43;1.25;;;0.80;;
20022;SDS011;10172;42.054;24.546;2023-04-25T11:21:10;1.33;;;0.73;;
20022;SDS011;10172;42.054;24.546;2023-04-25T11:23:36;1.73;;;0.90;;
20022;SDS011;10172;42.054;24.546;2023-04-25T11:26:05;1.00;;;0.80;;
20022;SDS011;10172;42.054;24.546;2023-04-25T11:28:30;1.17;;;0.90;;
20022;SDS011;10172;42.054;24.546;2023-04-25T11:30:56;2.38;;;0.82;;
20022;SDS011;10172;42.054;24.546;2023-04-25T11:33:24;1.67;;;0.90;;
20022;SDS011;10172;42.054;24.546;2023-04-25T11:35:53;1.23;;;0.80;;
20022;SDS011;10172;42.054;24.546;2023-04-25T11:38:21;1.00;;;0.70;;
20022;SDS011;10172;42.054;24.546;2023-04-25T11:40:53;2.10;;;0.70;;
20022;SDS011;10172;42.054;24.546;2023-04-25T11:43:22;0.98;;;0.80;;
20022;SDS011;10172;42.054;24.546;2023-04-25T11:45:51;1.88;;;0.85;;
20022;SDS011;10172;42.054;24.546;2023-04-25T11:48:17;1.15;;;0.70;;
20022;SDS011;10172;42.054;24.546;2023-04-25T11:50:43;1.05;;;0.68;;
20022;SDS011;10172;42.054;24.546;2023-04-25T11:53:09;1.38;;;1.02;;
20022;SDS011;10172;42.054;24.546;2023-04-25T11:55:35;1.00;;;0.60;;
20022;SDS011;10172;42.054;24.546;2023-04-25T11:58:02;1.15;;;0.88;;
20022;SDS011;10172;42.054;24.546;2023-04-25T12:00:28;0.50;;;0.50;;
20022;SDS011;10172;42.054;24.546;2023-04-25T12:02:55;1.08;;;0.68;;
20022;SDS011;10172;42.054;24.546;2023-04-25T12:05:23;2.25;;;1.05;;
20022;SDS011;10172;42.054;24.546;2023-04-25T12:07:54;1.02;;;0.85;;
20022;SDS011;10172;42.054;24.546;2023-04-25T12:10:20;2.10;;;1.15;;
20022;SDS011;10172;42.054;24.546;2023-04-25T12:12:46;0.98;;;0.80;;
20022;SDS011;10172;42.054;24.546;2023-04-25T12:15:14;1.88;;;0.90;;
20022;SDS011;10172;42.054;24.546;2023-04-25T12:17:50;1.33;;;0.90;;
20022;SDS011;10172;42.054;24.546;2023-04-25T12:20:24;1.52;;;0.90;;
20022;SDS011;10172;42.054;24.546;2023-04-25T12:22:51;1.65;;;0.98;;
20022;SDS011;10172;42.054;24.546;2023-04-25T12:28:11;1.00;;;0.80;;
20022;SDS011;10172;42.054;24.546;2023-04-25T12:30:55;1.23;;;0.70;;
20022;SDS011;10172;42.054;24.546;2023-04-25T12:33:21;1.40;;;1.10;;
20022;SDS011;10172;42.054;24.546;2023-04-25T12:35:47;2.10;;;0.95;;
20022;SDS011;10172;42.054;24.546;2023-04-25T12:40:52;3.15;;;1.17;;
20022;SDS011;10172;42.054;24.546;2023-04-25T12:43:18;1.58;;;0.70;;
20022;SDS011;10172;42.054;24.546;2023-04-25T12:45:44;1.08;;;0.57;;
20022;SDS011;10172;42.054;24.546;2023-04-25T12:48:12;0.95;;;0.77;;
20022;SDS011;10172;42.054;24.546;2023-04-25T12:50:38;1.05;;;0.73;;
20022;SDS011;10172;42.054;24.546;2023-04-25T12:53:03;1.95;;;0.88;;
20022;SDS011;10172;42.054;24.546;2023-04-25T12:55:29;1.55;;;0.80;;
20022;SDS011;10172;42.054;24.546;2023-04-25T12:57:54;2.65;;;1.00;;
20022;SDS011;10172;42.054;24.546;2023-04-25T13:00:20;3.33;;;0.90;;
20022;SDS011;10172;42.054;24.546;2023-04-25T13:02:45;1.95;;;0.77;;
20022;SDS011;10172;42.054;24.546;2023-04-25T13:05:12;3.00;;;0.88;;
20022;SDS011;10172;42.054;24.546;2023-04-25T13:07:38;1.42;;;0.80;;
20022;SDS011;10172;42.054;24.546;2023-04-25T13:10:04;1.00;;;0.70;;
20022;SDS011;10172;42.054;24.546;2023-04-25T13:12:30;1.02;;;0.68;;
20022;SDS011;10172;42.054;24.546;2023-04-25T13:14:56;0.95;;;0.80;;
20022;SDS011;10172;42.054;24.546;2023-04-25T13:17:22;4.50;;;0.80;;
20022;SDS011;10172;42.054;24.546;2023-04-25T13:19:47;0.90;;;0.60;;
20022;SDS011;10172;42.054;24.546;2023-04-25T13:22:13;1.23;;;1.05;;
20022;SDS011;10172;42.054;24.546;2023-04-25T13:24:40;3.75;;;1.23;;
20022;SDS011;10172;42.054;24.546;2023-04-25T13:27:05;3.00;;;1.30;;
20022;SDS011;10172;42.054;24.546;2023-04-25T13:29:32;1.35;;;1.05;;
20022;SDS011;10172;42.054;24.546;2023-04-25T13:31:59;4.72;;;1.52;;
20022;SDS011;10172;42.054;24.546;2023-04-25T13:34:25;1.80;;;1.20;;
20022;SDS011;10172;42.054;24.546;2023-04-25T13:36:51;1.23;;;1.00;;
20022;SDS011;10172;42.054;24.546;2023-04-25T13:39:16;2.70;;;1.45;;
20022;SDS011;10172;42.054;24.546;2023-04-25T13:41:42;1.63;;;1.13;;
20022;SDS011;10172;42.054;24.546;2023-04-25T13:44:07;3.75;;;0.95;;
20022;SDS011;10172;42.054;24.546;2023-04-25T13:46:32;1.30;;;1.00;;
20022;SDS011;10172;42.054;24.546;2023-04-25T13:48:58;0.70;;;0.60;;
20022;SDS011;10172;42.054;24.546;2023-04-25T13:51:24;1.20;;;0.70;;
20022;SDS011;10172;42.054;24.546;2023-04-25T13:53:50;0.95;;;0.73;;
20022;SDS011;10172;42.054;24.546;2023-04-25T13:56:16;1.90;;;0.80;;
20022;SDS011;10172;42.054;24.546;2023-04-25T13:58:44;1.55;;;0.98;;
20022;SDS011;10172;42.054;24.546;2023-04-25T14:01:10;1.13;;;1.00;;
20022;SDS011;10172;42.054;24.546;2023-04-25T14:03:35;3.20;;;1.17;;
20022;SDS011;10172;42.054;24.546;2023-04-25T14:06:01;2.08;;;1.10;;
20022;SDS011;10172;42.054;24.546;2023-04-25T14:08:26;3.72;;;0.85;;
20022;SDS011;10172;42.054;24.546;2023-04-25T14:10:52;0.70;;;0.60;;
20022;SDS011;10172;42.054;24.546;2023-04-25T14:13:17;1.25;;;0.70;;
20022;SDS011;10172;42.054;24.546;2023-04-25T14:15:43;1.42;;;0.75;;
20022;SDS011;10172;42.054;24.546;2023-04-25T14:18:08;1.08;;;0.88;;
20022;SDS011;10172;42.054;24.546;2023-04-25T14:20:34;2.55;;;0.88;;
20022;SDS011;10172;42.054;24.546;2023-04-25T14:22:59;2.35;;;1.10;;
20022;SDS011;10172;42.054;24.546;2023-04-25T14:25:25;2.38;;;1.13;;
20022;SDS011;10172;42.054;24.546;2023-04-25T14:27:51;2.67;;;1.40;;
20022;SDS011;10172;42.054;24.546;2023-04-25T14:30:19;2.70;;;1.15;;
20022;SDS011;10172;42.054;24.546;2023-04-25T14:32:46;1.75;;;1.17;;
20022;SDS011;10172;42.054;24.546;2023-04-25T14:35:11;1.77;;;1.00;;
20022;SDS011;10172;42.054;24.546;2023-04-25T14:37:37;2.22;;;1.00;;